Time;durP1;ratioP1;P1;durP2;ratioP2;P2;SDS_P1;SDS_P2;PMS_P1;PMS_P2;Temp;Humidity;BMP_temperature;BMP_pressure;BME280_temperature;BME280_humidity;BME280_pressure;Samples;Min_cycle;Max_cycle;Signal;HPM_P1;HPM_P2
2022/12/03 00:00:11;;;;;;;32.67;21.85;;;6.60;68.70;;;;;;5058701;28;20498;-76
2022/12/03 00:02:56;;;;;;;35.53;21.27;;;6.50;68.50;;;;;;5067070;28;20123;-75
2022/12/03 00:05:41;;;;;;;33.60;21.48;;;6.50;68.50;;;;;;5051971;28;20443;-76
2022/12/03 00:08:25;;;;;;;36.70;21.77;;;6.50;68.50;;;;;;5059024;28;20141;-74
2022/12/03 00:11:10;;;;;;;31.90;20.73;;;6.60;68.70;;;;;;5062768;28;20507;-78
2022/12/03 00:13:55;;;;;;;34.05;21.33;;;6.60;68.70;;;;;;5049244;28;20090;-77
2022/12/03 00:16:39;;;;;;;37.42;22.02;;;6.60;68.70;;;;;;5043879;28;20040;-75
2022/12/03 00:19:24;;;;;;;34.33;20.63;;;6.60;68.70;;;;;;5064006;28;20537;-76
2022/12/03 00:22:09;;;;;;;32.17;21.25;;;6.60;68.70;;;;;;5064518;28;20047;-75
2022/12/03 00:24:54;;;;;;;31.73;20.35;;;6.60;68.80;;;;;;5046093;28;20047;-77
2022/12/03 00:27:39;;;;;;;32.65;20.48;;;6.60;68.70;;;;;;5066422;28;20406;-78
2022/12/03 00:30:23;;;;;;;33.42;21.05;;;6.70;68.90;;;;;;5041464;28;20036;-76
2022/12/03 00:33:08;;;;;;;31.80;20.17;;;6.70;68.90;;;;;;5066669;28;20048;-77
2022/12/03 00:35:52;;;;;;;33.22;19.77;;;6.70;68.90;;;;;;5065152;28;20513;-79
2022/12/03 00:38:37;;;;;;;30.85;18.88;;;6.70;68.90;;;;;;5044652;28;20038;-75
2022/12/03 00:41:22;;;;;;;27.23;17.55;;;6.70;68.80;;;;;;5039295;28;20052;-78
2022/12/03 00:44:07;;;;;;;31.83;19.52;;;6.70;68.80;;;;;;5042574;28;20044;-75
2022/12/03 00:46:52;;;;;;;33.50;19.63;;;6.70;68.90;;;;;;5033943;28;20060;-78
2022/12/03 00:49:36;;;;;;;30.90;18.58;;;6.70;68.80;;;;;;5035533;28;20068;-78
2022/12/03 00:52:21;;;;;;;26.67;18.02;;;6.70;68.80;;;;;;5064944;28;20441;-77
2022/12/03 00:55:06;;;;;;;28.38;18.17;;;6.70;68.80;;;;;;5066323;28;20522;-76
2022/12/03 00:57:51;;;;;;;27.65;17.77;;;6.70;68.80;;;;;;5063984;28;20056;-79
2022/12/03 01:00:36;;;;;;;27.50;17.70;;;6.70;68.90;;;;;;5065962;28;20044;-77
2022/12/03 01:03:21;;;;;;;28.92;17.90;;;6.70;68.80;;;;;;5042832;28;20094;-80
2022/12/03 01:06:06;;;;;;;26.58;16.73;;;6.70;68.80;;;;;;5058755;28;20454;-75
2022/12/03 01:08:51;;;;;;;25.90;17.45;;;6.80;69.00;;;;;;5065319;28;20044;-80
2022/12/03 01:11:40;;;;;;;29.50;17.55;;;6.80;69.00;;;;;;5028118;28;20778;-80
2022/12/03 01:14:25;;;;;;;27.88;17.77;;;6.70;68.80;;;;;;5050672;28;20518;-78
2022/12/03 01:17:09;;;;;;;26.52;17.23;;;6.70;68.80;;;;;;5036168;28;20411;-77
2022/12/03 01:19:53;;;;;;;27.83;16.85;;;6.80;69.00;;;;;;5037714;28;20046;-77
2022/12/03 01:22:38;;;;;;;29.30;16.85;;;6.70;68.90;;;;;;5049411;28;20035;-77
2022/12/03 01:25:22;;;;;;;26.15;16.50;;;6.70;68.80;;;;;;5050295;28;20079;-79
2022/12/03 01:28:08;;;;;;;25.27;16.08;;;6.70;68.90;;;;;;5063917;28;20098;-78
2022/12/03 01:33:56;;;;;;;27.13;16.40;;;6.70;68.90;;;;;;5044925;28;20063;-77
2022/12/03 01:36:40;;;;;;;22.75;15.50;;;6.70;68.80;;;;;;5049263;28;20055;-81
2022/12/03 01:39:25;;;;;;;26.85;16.38;;;6.70;68.80;;;;;;5062226;28;20055;-79
2022/12/03 01:42:22;;;;;;;23.45;15.55;;;6.80;69.00;;;;;;5034129;28;20118;-76
2022/12/03 01:45:18;;;;;;;27.35;16.77;;;6.70;68.80;;;;;;5013160;28;20741;-75
2022/12/03 01:48:02;;;;;;;28.05;16.90;;;6.80;69.00;;;;;;5021236;28;20036;-76
2022/12/03 01:50:47;;;;;;;27.42;16.80;;;6.80;68.90;;;;;;5039310;28;20051;-78
2022/12/03 01:53:32;;;;;;;23.27;15.02;;;6.80;68.90;;;;;;5017372;28;20083;-77
2022/12/03 01:56:17;;;;;;;28.35;16.20;;;6.80;68.90;;;;;;5015233;28;20125;-81
2022/12/03 01:59:02;;;;;;;28.92;17.63;;;6.80;68.90;;;;;;5029811;28;20056;-75
2022/12/03 02:01:47;;;;;;;29.00;16.25;;;6.80;68.90;;;;;;5051290;28;20052;-75
2022/12/03 02:04:31;;;;;;;28.13;17.50;;;6.80;68.90;;;;;;5012976;28;20570;-76
2022/12/03 02:07:22;;;;;;;21.75;15.95;;;6.80;68.90;;;;;;5035350;28;20304;-76
2022/12/03 02:10:06;;;;;;;23.48;16.17;;;6.80;68.90;;;;;;5060186;28;20031;-75
2022/12/03 02:12:58;;;;;;;24.40;15.90;;;6.80;68.90;;;;;;5026778;28;20052;-76
2022/12/03 02:15:43;;;;;;;25.58;15.82;;;6.80;68.90;;;;;;5010762;28;20052;-79
2022/12/03 02:18:28;;;;;;;21.98;14.52;;;6.80;68.90;;;;;;5009003;28;20354;-75
2022/12/03 02:21:59;;;;;;;25.55;15.98;;;6.80;68.90;;;;;;5043467;28;20039;-77
2022/12/03 02:25:05;;;;;;;22.25;15.00;;;6.80;68.90;;;;;;5065410;28;20043;-76
2022/12/03 02:27:53;;;;;;;23.10;15.45;;;6.90;68.90;;;;;;5036008;28;20105;-75
2022/12/03 02:30:38;;;;;;;22.50;14.10;;;6.90;68.90;;;;;;5065167;28;20174;-79
2022/12/03 02:33:23;;;;;;;23.60;14.48;;;6.90;68.90;;;;;;5062356;28;20472;-79
2022/12/03 02:36:08;;;;;;;22.73;14.98;;;6.90;68.90;;;;;;5064627;28;20035;-77
2022/12/03 02:38:53;;;;;;;25.33;14.48;;;6.90;68.90;;;;;;5061674;28;20148;-77
2022/12/03 02:44:40;;;;;;;23.08;15.15;;;6.90;68.80;;;;;;5040047;28;20048;-77
2022/12/03 02:47:25;;;;;;;20.35;14.32;;;6.90;68.80;;;;;;5084723;22;20098;-84
2022/12/03 02:50:12;;;;;;;19.55;13.60;;;6.90;68.80;;;;;;5079531;28;20128;-84
2022/12/03 02:52:59;;;;;;;21.23;14.82;;;6.90;68.70;;;;;;5084333;28;20125;-82
2022/12/03 02:55:44;;;;;;;18.70;13.77;;;6.90;68.70;;;;;;5087710;28;20115;-83
2022/12/03 02:58:31;;;;;;;19.52;13.63;;;6.90;68.70;;;;;;5080152;28;20058;-83
2022/12/03 03:01:16;;;;;;;18.85;13.02;;;6.90;68.70;;;;;;5085130;28;20066;-83
2022/12/03 03:04:01;;;;;;;18.83;12.80;;;6.90;68.70;;;;;;5087595;28;20038;-83
2022/12/03 03:06:46;;;;;;;18.30;11.63;;;6.90;68.60;;;;;;5087013;28;20047;-85
2022/12/03 03:09:31;;;;;;;17.15;11.18;;;6.90;68.60;;;;;;5085577;28;20557;-86
2022/12/03 03:12:15;;;;;;;15.98;10.77;;;6.90;68.60;;;;;;5087255;28;20089;-83
2022/12/03 03:15:00;;;;;;;16.13;10.80;;;6.90;68.60;;;;;;5083090;28;20123;-84
2022/12/03 03:17:45;;;;;;;15.77;10.32;;;6.90;68.50;;;;;;5075581;28;20190;-84
2022/12/03 03:20:29;;;;;;;15.82;11.77;;;7.00;68.60;;;;;;5085643;28;20099;-85
2022/12/03 03:23:17;;;;;;;17.75;10.27;;;6.90;68.40;;;;;;5071769;28;20118;-85
2022/12/03 03:26:08;;;;;;;15.93;10.95;;;7.00;68.50;;;;;;5086124;28;20075;-85
2022/12/03 03:28:52;;;;;;;20.13;10.80;;;7.00;68.50;;;;;;5070864;28;20078;-85
2022/12/03 03:31:38;;;;;;;14.80;10.27;;;7.00;68.40;;;;;;5080419;28;20601;-84
2022/12/03 03:34:23;;;;;;;14.40;9.57;;;7.00;68.30;;;;;;5087116;28;20181;-84
2022/12/03 03:37:08;;;;;;;14.30;9.18;;;7.00;68.30;;;;;;5084138;28;20514;-84
2022/12/03 03:39:53;;;;;;;14.77;10.45;;;7.00;68.20;;;;;;5084734;28;20083;-84
2022/12/03 03:42:37;;;;;;;13.88;9.57;;;7.00;68.20;;;;;;5075557;28;20098;-83
2022/12/03 03:45:22;;;;;;;17.73;10.00;;;7.00;68.20;;;;;;5087276;28;20469;-83
2022/12/03 03:48:07;;;;;;;14.60;10.07;;;7.00;68.10;;;;;;5076973;28;20404;-83
2022/12/03 03:50:52;;;;;;;16.48;10.40;;;7.00;68.00;;;;;;5084854;28;20097;-83
2022/12/03 03:53:40;;;;;;;14.00;10.40;;;7.00;68.00;;;;;;5080271;28;20047;-82
2022/12/03 03:56:25;;;;;;;15.27;10.00;;;7.00;68.00;;;;;;5089452;28;20082;-83
2022/12/03 03:59:12;;;;;;;14.45;9.93;;;7.00;68.00;;;;;;5089782;28;20706;-83
2022/12/03 04:01:56;;;;;;;15.05;10.07;;;7.00;68.40;;;;;;5084157;28;20064;-83
2022/12/03 04:04:40;;;;;;;16.30;11.52;;;7.00;67.90;;;;;;5087765;28;20088;-84
2022/12/03 04:07:25;;;;;;;14.27;9.52;;;7.00;67.90;;;;;;5081507;28;20043;-85
2022/12/03 04:13:14;;;;;;;15.88;10.80;;;7.00;67.70;;;;;;5085847;28;20079;-84
2022/12/03 04:15:59;;;;;;;17.10;11.02;;;7.00;67.70;;;;;;5088354;28;20390;-86
2022/12/03 04:18:43;;;;;;;19.48;10.20;;;7.00;67.70;;;;;;5083480;28;20035;-84
2022/12/03 04:24:31;;;;;;;18.48;10.88;;;7.00;67.70;;;;;;5071364;28;20043;-87
2022/12/03 04:30:19;;;;;;;15.32;10.10;;;7.00;67.60;;;;;;5090735;28;20039;-83
2022/12/03 04:36:06;;;;;;;14.60;9.93;;;7.10;67.70;;;;;;5089299;28;20039;-84
2022/12/03 04:38:51;;;;;;;16.65;9.85;;;7.10;67.70;;;;;;5086264;28;20062;-82
2022/12/03 04:41:35;;;;;;;15.20;10.55;;;7.10;67.70;;;;;;5076146;28;21140;-83
2022/12/03 04:44:32;;;;;;;16.27;10.52;;;7.10;67.70;;;;;;5080010;28;20040;-82
2022/12/03 04:47:19;;;;;;;15.23;10.98;;;7.10;67.70;;;;;;5085299;28;20078;-82
2022/12/03 04:50:04;;;;;;;15.80;10.27;;;7.10;67.60;;;;;;5086578;28;20047;-82
2022/12/03 04:52:49;;;;;;;18.58;11.68;;;7.10;67.60;;;;;;5088415;28;20478;-81
2022/12/03 04:55:33;;;;;;;16.92;10.93;;;7.10;67.60;;;;;;5080735;28;20089;-83
2022/12/03 04:58:18;;;;;;;16.25;11.05;;;7.10;67.60;;;;;;5076334;28;20089;-82
2022/12/03 05:01:03;;;;;;;16.95;10.95;;;7.10;67.60;;;;;;5087932;28;20747;-82
2022/12/03 05:03:47;;;;;;;16.27;11.05;;;7.10;67.60;;;;;;5087638;28;20101;-83
2022/12/03 05:06:32;;;;;;;15.13;10.73;;;7.10;67.60;;;;;;5086999;28;20070;-84
2022/12/03 05:09:17;;;;;;;16.33;10.60;;;7.10;67.60;;;;;;5073512;28;20039;-85
2022/12/03 05:12:02;;;;;;;18.15;11.40;;;7.10;67.60;;;;;;5088300;28;20105;-84
2022/12/03 05:14:47;;;;;;;15.75;10.45;;;7.10;67.60;;;;;;5089221;28;20054;-83
2022/12/03 05:17:32;;;;;;;18.90;11.20;;;7.10;67.60;;;;;;5085283;28;20038;-82
2022/12/03 05:23:20;;;;;;;17.80;10.63;;;7.10;67.50;;;;;;5086781;28;20074;-84
2022/12/03 05:26:05;;;;;;;14.75;10.77;;;7.20;67.70;;;;;;5071073;28;20082;-84
2022/12/03 05:28:51;;;;;;;15.00;10.23;;;7.20;67.70;;;;;;5085343;28;20094;-83
2022/12/03 05:31:36;;;;;;;19.45;10.40;;;7.10;67.50;;;;;;5080759;28;20046;-82
2022/12/03 05:34:20;;;;;;;16.67;11.02;;;7.20;67.70;;;;;;5087687;28;20058;-83
2022/12/03 05:37:05;;;;;;;18.33;11.68;;;7.10;67.50;;;;;;5086316;28;20039;-84
2022/12/03 05:39:50;;;;;;;14.82;10.00;;;7.10;67.50;;;;;;5084679;28;20043;-83
2022/12/03 05:42:52;;;;;;;15.82;10.02;;;7.10;67.60;;;;;;5069997;28;20573;-82
2022/12/03 05:45:41;;;;;;;15.73;11.20;;;7.20;67.70;;;;;;5076360;28;20399;-82
2022/12/03 05:48:25;;;;;;;18.38;10.07;;;7.10;67.60;;;;;;5081480;28;20102;-83
2022/12/03 05:51:10;;;;;;;15.73;10.13;;;7.10;67.60;;;;;;5082748;28;20105;-83
2022/12/03 05:53:55;;;;;;;18.55;11.30;;;7.10;67.70;;;;;;5083296;28;20047;-82
2022/12/03 05:56:39;;;;;;;15.95;10.05;;;7.10;67.60;;;;;;5078849;28;20119;-81
2022/12/03 05:59:24;;;;;;;14.98;9.90;;;7.10;67.70;;;;;;5078455;28;20032;-82
2022/12/03 06:02:09;;;;;;;17.48;9.73;;;7.10;67.70;;;;;;5084378;28;20085;-83
2022/12/03 06:04:54;;;;;;;12.52;8.90;;;7.20;67.80;;;;;;5081307;28;20517;-83
2022/12/03 06:07:38;;;;;;;15.52;10.55;;;7.10;67.60;;;;;;5077502;28;20042;-85
2022/12/03 06:10:24;;;;;;;16.00;10.98;;;7.20;67.80;;;;;;5082259;28;20125;-85
2022/12/03 06:13:08;;;;;;;17.98;10.43;;;7.20;67.80;;;;;;5084248;28;20063;-85
2022/12/03 06:15:53;;;;;;;15.85;9.30;;;7.20;67.80;;;;;;5083117;28;20132;-84
2022/12/03 06:18:37;;;;;;;14.95;8.90;;;7.20;67.80;;;;;;5076901;28;20424;-83
2022/12/03 06:21:22;;;;;;;17.95;11.93;;;7.20;67.80;;;;;;5081837;28;20437;-84
2022/12/03 06:24:07;;;;;;;14.35;9.10;;;7.20;67.80;;;;;;5074412;28;20189;-84
2022/12/03 06:26:51;;;;;;;15.88;11.07;;;7.20;67.80;;;;;;5083150;28;20070;-84
2022/12/03 06:29:36;;;;;;;12.50;8.98;;;7.20;67.70;;;;;;5062147;28;20749;-83
2022/12/03 06:32:21;;;;;;;13.50;9.80;;;7.20;67.70;;;;;;5082652;28;20051;-83
2022/12/03 06:35:05;;;;;;;22.23;10.35;;;7.30;67.90;;;;;;5082667;28;20066;-83
2022/12/03 06:37:50;;;;;;;16.08;10.48;;;7.30;67.80;;;;;;5082733;28;20036;-86
2022/12/03 06:40:37;;;;;;;15.77;8.70;;;7.30;67.80;;;;;;5076142;28;20618;-84
2022/12/03 06:43:21;;;;;;;15.95;9.32;;;7.30;67.80;;;;;;5081170;28;20083;-93
2022/12/03 06:46:05;;;;;;;14.27;8.63;;;7.40;68.00;;;;;;5077396;28;21037;-91
2022/12/03 06:48:50;;;;;;;14.77;9.75;;;7.40;67.90;;;;;;5077588;28;20161;-86
2022/12/03 06:51:35;;;;;;;13.27;8.55;;;7.40;67.90;;;;;;5086570;28;20437;-90
2022/12/03 06:54:20;;;;;;;15.63;8.68;;;7.40;67.90;;;;;;5087430;28;20506;-84
2022/12/03 06:57:04;;;;;;;16.98;8.73;;;7.40;67.80;;;;;;5084796;28;20126;-89
2022/12/03 06:59:49;;;;;;;16.02;8.85;;;7.40;67.80;;;;;;5079000;28;20303;-86
2022/12/03 07:02:34;;;;;;;11.18;8.27;;;7.40;67.80;;;;;;5085214;28;20071;-84
2022/12/03 07:05:19;;;;;;;13.88;8.23;;;7.50;67.90;;;;;;5087448;28;20165;-83
2022/12/03 07:08:03;;;;;;;11.70;7.88;;;7.50;68.00;;;;;;5072792;28;20092;-81
2022/12/03 07:10:48;;;;;;;16.27;8.13;;;7.50;68.20;;;;;;5065620;28;20064;-78
2022/12/03 07:13:33;;;;;;;13.75;8.40;;;7.60;68.50;;;;;;5082434;28;20548;-84
2022/12/03 07:16:17;;;;;;;12.43;7.93;;;7.70;68.80;;;;;;5078976;28;20502;-85
2022/12/03 07:19:03;;;;;;;13.32;7.72;;;7.70;68.80;;;;;;5076134;28;20043;-92
2022/12/03 07:21:48;;;;;;;12.50;8.00;;;7.80;68.90;;;;;;5078245;28;20047;-88
2022/12/03 07:24:32;;;;;;;12.35;8.45;;;7.90;69.00;;;;;;5073555;28;20043;-90
2022/12/03 07:27:17;;;;;;;13.52;7.78;;;7.90;68.90;;;;;;5085580;28;20124;-82
2022/12/03 07:30:01;;;;;;;14.95;7.30;;;7.90;68.80;;;;;;5076125;28;20145;-82
2022/12/03 07:32:46;;;;;;;11.38;7.50;;;7.90;68.70;;;;;;5087237;28;20552;-89
2022/12/03 07:35:31;;;;;;;10.45;6.70;;;7.80;68.50;;;;;;5085719;28;20047;-88
2022/12/03 07:38:15;;;;;;;11.13;6.38;;;7.80;68.40;;;;;;5099684;28;20038;-90
2022/12/03 07:40:59;;;;;;;12.82;6.97;;;7.80;68.40;;;;;;5089459;28;20035;-91
2022/12/03 07:43:44;;;;;;;11.32;6.82;;;7.70;68.10;;;;;;5090068;28;20035;-95
2022/12/03 07:46:29;;;;;;;8.95;5.75;;;7.70;68.10;;;;;;5086361;28;20066;-88
2022/12/03 07:49:14;;;;;;;7.95;6.05;;;7.70;68.00;;;;;;5086910;28;20043;-94
2022/12/03 07:51:58;;;;;;;11.60;7.00;;;7.70;68.00;;;;;;5070639;28;20051;-80
2022/12/03 07:54:43;;;;;;;13.02;6.25;;;7.70;68.10;;;;;;5084810;28;20058;-80
2022/12/03 07:57:27;;;;;;;9.45;6.03;;;7.70;68.10;;;;;;5082553;28;20047;-80
2022/12/03 08:00:12;;;;;;;10.85;6.13;;;7.80;68.60;;;;;;5076243;28;20160;-83
2022/12/03 08:02:56;;;;;;;12.15;5.93;;;8.00;68.90;;;;;;5086593;28;20043;-80
2022/12/03 08:05:40;;;;;;;12.93;5.25;;;8.10;68.70;;;;;;5080437;28;20594;-80
2022/12/03 08:08:25;;;;;;;8.48;5.93;;;8.20;68.50;;;;;;5076249;28;20043;-89
2022/12/03 08:11:15;;;;;;;7.90;4.95;;;8.30;68.40;;;;;;5077028;28;20498;-82
2022/12/03 08:14:00;;;;;;;9.30;5.30;;;8.30;68.30;;;;;;5084131;28;20051;-81
2022/12/03 08:16:46;;;;;;;7.75;5.38;;;8.30;68.10;;;;;;5076447;28;20422;-82
2022/12/03 08:19:30;;;;;;;7.63;5.40;;;8.30;68.00;;;;;;5080486;28;20403;-80
2022/12/03 08:22:15;;;;;;;8.40;5.38;;;8.20;67.70;;;;;;5080539;28;20094;-82
2022/12/03 08:25:00;;;;;;;9.93;5.60;;;8.30;67.80;;;;;;5085591;28;20231;-80
2022/12/03 08:27:45;;;;;;;8.82;5.65;;;8.20;67.50;;;;;;5081989;28;20058;-80
2022/12/03 08:30:29;;;;;;;8.80;5.78;;;8.20;67.50;;;;;;5084605;28;20051;-83
2022/12/03 08:33:22;;;;;;;7.65;5.40;;;8.20;67.40;;;;;;5085060;28;20161;-81
2022/12/03 08:36:13;;;;;;;6.72;4.75;;;8.10;67.10;;;;;;5076992;28;20114;-80
2022/12/03 08:39:13;;;;;;;8.57;5.07;;;8.10;67.00;;;;;;5082527;28;20098;-79
2022/12/03 08:45:30;;;;;;;10.00;5.55;;;8.10;66.90;;;;;;5081755;28;20090;-79
2022/12/03 08:48:38;;;;;;;7.95;5.65;;;8.10;66.80;;;;;;5082434;28;20459;-79
2022/12/03 08:51:24;;;;;;;10.73;6.72;;;8.10;66.70;;;;;;5083101;28;20047;-80
2022/12/03 08:54:17;;;;;;;8.80;5.35;;;8.10;66.70;;;;;;5083717;28;20113;-79
2022/12/03 08:57:23;;;;;;;8.93;6.45;;;8.10;66.60;;;;;;5082199;28;20034;-79
2022/12/03 09:00:19;;;;;;;10.55;5.57;;;8.10;66.50;;;;;;5079199;28;20050;-79
2022/12/03 09:03:09;;;;;;;8.75;5.85;;;8.10;66.40;;;;;;5093437;28;20043;-78
2022/12/03 09:05:54;;;;;;;8.85;6.35;;;8.10;66.40;;;;;;5082200;28;20039;-79
2022/12/03 09:08:38;;;;;;;8.70;5.55;;;8.10;66.20;;;;;;5108338;28;20043;-79
2022/12/03 09:11:23;;;;;;;9.48;5.88;;;8.20;66.30;;;;;;5096406;28;20271;-79
2022/12/03 09:14:08;;;;;;;12.80;6.90;;;8.10;66.10;;;;;;5106404;28;20055;-79
2022/12/03 09:16:54;;;;;;;12.05;6.03;;;8.20;66.10;;;;;;5105858;28;20065;-79
2022/12/03 09:19:43;;;;;;;7.65;6.28;;;8.20;66.00;;;;;;5084202;28;20455;-79
2022/12/03 09:22:28;;;;;;;10.38;6.03;;;8.20;66.00;;;;;;5084826;28;20050;-79
2022/12/03 09:25:12;;;;;;;11.63;6.30;;;8.30;66.00;;;;;;5083149;28;20043;-79
2022/12/03 09:27:57;;;;;;;10.63;6.65;;;8.30;65.90;;;;;;5084967;28;20119;-78
2022/12/03 09:30:41;;;;;;;10.70;6.57;;;8.30;65.80;;;;;;5071429;28;20085;-81
2022/12/03 09:33:26;;;;;;;9.95;5.95;;;8.30;65.70;;;;;;5085352;28;20051;-79
2022/12/03 09:36:11;;;;;;;12.75;6.55;;;8.30;65.60;;;;;;5083624;28;20035;-80
2022/12/03 09:38:56;;;;;;;7.97;5.85;;;8.30;65.50;;;;;;5066872;28;20062;-79
2022/12/03 09:41:41;;;;;;;11.65;7.05;;;8.40;65.60;;;;;;5070799;28;20144;-80
2022/12/03 09:44:28;;;;;;;9.68;6.60;;;8.40;65.60;;;;;;5079129;28;20125;-80
2022/12/03 09:47:13;;;;;;;10.52;6.20;;;8.40;65.50;;;;;;5076132;28;20579;-79
2022/12/03 09:49:58;;;;;;;8.48;6.45;;;8.40;65.50;;;;;;5084218;28;20042;-80
2022/12/03 09:52:44;;;;;;;11.25;5.85;;;8.40;65.40;;;;;;5082482;28;20165;-81
2022/12/03 09:55:28;;;;;;;10.57;6.55;;;8.40;65.30;;;;;;5083692;28;20142;-79
2022/12/03 09:58:16;;;;;;;11.07;6.13;;;8.50;65.40;;;;;;5084063;28;20039;-79
2022/12/03 10:01:01;;;;;;;10.55;6.25;;;8.50;65.30;;;;;;5076346;28;20125;-81
2022/12/03 10:03:48;;;;;;;11.98;7.10;;;8.60;65.40;;;;;;5075491;28;20047;-80
2022/12/03 10:06:34;;;;;;;11.10;6.50;;;8.60;65.30;;;;;;5086519;28;20082;-80
2022/12/03 10:09:24;;;;;;;9.43;6.30;;;8.60;65.10;;;;;;5083346;28;20183;-80
2022/12/03 10:12:12;;;;;;;10.77;6.15;;;8.70;65.10;;;;;;5083976;28;20403;-79
2022/12/03 10:14:58;;;;;;;12.10;6.85;;;8.80;65.20;;;;;;5082212;28;20080;-79
2022/12/03 10:17:42;;;;;;;10.50;7.10;;;8.80;65.10;;;;;;5071014;28;20494;-79
2022/12/03 10:20:27;;;;;;;10.77;6.22;;;8.90;65.10;;;;;;5078416;28;20051;-79
2022/12/03 10:23:26;;;;;;;9.65;6.35;;;8.90;65.00;;;;;;5074066;28;20515;-80
2022/12/03 10:26:10;;;;;;;10.07;6.25;;;9.00;65.00;;;;;;5073235;28;20035;-80
2022/12/03 10:28:55;;;;;;;11.18;6.65;;;9.00;64.90;;;;;;5083963;28;20104;-80
2022/12/03 10:31:39;;;;;;;9.90;6.15;;;9.00;64.80;;;;;;5062430;28;20098;-80
2022/12/03 10:34:31;;;;;;;10.10;6.55;;;9.10;64.80;;;;;;5073123;28;20117;-80
2022/12/03 10:37:20;;;;;;;12.07;6.45;;;9.00;64.60;;;;;;5081700;28;20416;-80
2022/12/03 10:40:08;;;;;;;8.65;5.53;;;9.10;64.70;;;;;;5079474;28;20047;-80
2022/12/03 10:43:14;;;;;;;8.27;5.43;;;9.10;64.70;;;;;;5077806;28;20089;-80
2022/12/03 10:46:01;;;;;;;9.88;6.20;;;9.10;64.70;;;;;;5073243;28;20141;-79
2022/12/03 10:49:05;;;;;;;6.80;5.47;;;9.10;64.70;;;;;;5070593;28;20104;-81
2022/12/03 10:51:50;;;;;;;13.07;6.78;;;9.10;64.60;;;;;;5079928;28;20449;-80
2022/12/03 10:54:35;;;;;;;11.77;5.82;;;9.20;64.70;;;;;;5082190;28;20054;-79
2022/12/03 10:57:19;;;;;;;8.05;6.38;;;9.20;64.60;;;;;;5078250;28;20043;-80
2022/12/03 11:00:05;;;;;;;11.88;6.55;;;9.20;64.50;;;;;;5064500;28;20399;-79
2022/12/03 11:02:50;;;;;;;11.90;8.15;;;9.30;64.60;;;;;;5087524;28;20192;-80
2022/12/03 11:05:34;;;;;;;10.43;5.93;;;9.30;64.60;;;;;;5086097;28;20260;-81
2022/12/03 11:08:25;;;;;;;11.40;5.68;;;9.40;64.70;;;;;;5075521;28;20121;-76
2022/12/03 11:11:24;;;;;;;9.50;5.70;;;9.50;64.70;;;;;;5084656;28;20063;-79
2022/12/03 11:14:09;;;;;;;11.98;6.38;;;9.60;64.90;;;;;;5086477;28;20559;-80
2022/12/03 11:16:53;;;;;;;8.45;6.32;;;9.80;65.00;;;;;;5086013;28;20062;-81
2022/12/03 11:19:38;;;;;;;8.68;5.50;;;9.90;65.00;;;;;;5086514;28;20509;-80
2022/12/03 11:22:26;;;;;;;9.20;7.10;;;10.00;64.90;;;;;;5082707;28;20166;-83
2022/12/03 11:25:26;;;;;;;10.85;7.80;;;10.10;64.90;;;;;;5081177;28;20035;-87
2022/12/03 11:28:13;;;;;;;12.05;5.95;;;10.30;65.10;;;;;;5079128;28;20443;-88
2022/12/03 11:31:10;;;;;;;8.90;6.90;;;10.40;65.00;;;;;;5075272;28;20064;-84
2022/12/03 11:34:18;;;;;;;10.48;6.10;;;10.50;64.90;;;;;;5086131;28;20407;-81
2022/12/03 11:37:09;;;;;;;13.02;7.97;;;10.60;65.00;;;;;;5084517;28;20169;-82
2022/12/03 11:40:02;;;;;;;15.48;9.38;;;10.60;65.00;;;;;;5082476;28;20050;-82
2022/12/03 11:42:47;;;;;;;11.65;7.55;;;10.70;65.20;;;;;;5086500;28;20774;-82
2022/12/03 11:45:37;;;;;;;11.70;7.72;;;10.90;65.50;;;;;;5086520;28;20604;-91
2022/12/03 11:48:21;;;;;;;8.60;6.22;;;10.90;65.40;;;;;;5086420;28;20136;-92
2022/12/03 11:51:13;;;;;;;12.00;6.40;;;11.00;65.40;;;;;;5098412;28;20555;-94
2022/12/03 11:53:59;;;;;;;12.10;6.82;;;11.00;65.20;;;;;;5092877;28;20105;-96
2022/12/03 11:56:47;;;;;;;10.85;6.45;;;11.00;65.10;;;;;;5085891;28;20105;-89
2022/12/03 11:59:32;;;;;;;10.90;7.97;;;11.00;65.10;;;;;;5088470;28;20043;-90
2022/12/03 12:02:20;;;;;;;8.27;6.22;;;11.00;65.00;;;;;;5071459;28;20043;-87
2022/12/03 12:05:26;;;;;;;10.27;6.72;;;11.10;65.10;;;;;;5090590;28;20042;-80
2022/12/03 12:08:18;;;;;;;9.02;6.32;;;11.00;64.80;;;;;;5084800;28;20039;-81
2022/12/03 12:11:03;;;;;;;8.73;6.10;;;11.00;64.80;;;;;;5084900;28;20047;-80
2022/12/03 12:13:47;;;;;;;8.45;6.00;;;11.00;64.80;;;;;;5085657;28;20051;-80
2022/12/03 12:16:39;;;;;;;8.77;5.88;;;11.00;64.80;;;;;;5081237;28;20097;-87
2022/12/03 12:19:35;;;;;;;8.23;5.70;;;10.90;64.60;;;;;;5084819;28;20085;-90
2022/12/03 12:22:23;;;;;;;8.77;5.55;;;10.90;64.50;;;;;;5082468;28;20046;-83
2022/12/03 12:25:35;;;;;;;8.20;5.38;;;10.90;64.50;;;;;;5084611;28;20078;-80
2022/12/03 12:28:19;;;;;;;8.50;5.72;;;11.00;64.40;;;;;;5078442;28;20123;-80
2022/12/03 12:31:11;;;;;;;6.40;5.15;;;10.90;64.30;;;;;;5072622;28;20075;-80
2022/12/03 12:33:55;;;;;;;6.80;5.05;;;11.00;64.30;;;;;;5075521;28;20312;-80
2022/12/03 12:36:40;;;;;;;9.05;4.30;;;11.00;64.20;;;;;;5074287;28;20126;-79
2022/12/03 12:39:25;;;;;;;7.57;5.30;;;11.00;64.10;;;;;;5085454;28;20148;-78
2022/12/03 12:42:31;;;;;;;6.93;4.88;;;11.00;64.00;;;;;;5083130;28;20109;-87
2022/12/03 12:45:22;;;;;;;9.15;5.88;;;11.00;63.70;;;;;;5084804;28;20097;-82
2022/12/03 12:48:21;;;;;;;5.20;4.45;;;10.90;63.70;;;;;;5075954;28;20190;-83
2022/12/03 12:51:17;;;;;;;6.85;4.95;;;10.90;63.60;;;;;;5084354;28;20096;-86
2022/12/03 12:54:01;;;;;;;8.68;4.80;;;10.90;63.60;;;;;;5086200;28;20055;-83
2022/12/03 12:56:49;;;;;;;8.27;4.88;;;10.90;63.60;;;;;;5081011;28;20120;-79
2022/12/03 12:59:33;;;;;;;5.50;4.55;;;10.90;63.60;;;;;;5085717;28;20043;-79
2022/12/03 13:02:30;;;;;;;8.43;4.65;;;10.80;63.40;;;;;;5072933;28;20067;-80
2022/12/03 13:05:15;;;;;;;6.75;4.43;;;10.90;63.40;;;;;;5072419;28;20447;-79
2022/12/03 13:07:59;;;;;;;6.20;4.95;;;10.80;63.30;;;;;;5083005;28;20082;-79
2022/12/03 13:10:44;;;;;;;7.20;4.03;;;10.80;63.30;;;;;;5082938;28;20514;-78
2022/12/03 13:13:39;;;;;;;7.20;4.63;;;10.80;63.30;;;;;;5083960;28;20051;-79
2022/12/03 13:16:31;;;;;;;6.82;4.50;;;10.80;63.20;;;;;;5068589;28;20486;-80
2022/12/03 13:19:32;;;;;;;6.30;3.88;;;10.70;63.10;;;;;;5080885;28;20090;-80
2022/12/03 13:22:21;;;;;;;7.70;4.43;;;10.70;63.10;;;;;;5083975;28;20059;-79
2022/12/03 13:25:34;;;;;;;5.75;4.10;;;10.70;63.10;;;;;;5072170;28;20043;-80
2022/12/03 13:28:19;;;;;;;8.98;4.63;;;10.80;63.20;;;;;;5072382;28;20119;-79
2022/12/03 13:31:22;;;;;;;9.95;3.92;;;10.80;63.20;;;;;;5082616;28;20104;-80
2022/12/03 13:34:15;;;;;;;;;;;10.80;63.00;;;;;;5082438;28;20044;-79
2022/12/03 13:37:01;;;;;;;7.88;3.78;;;10.80;63.10;;;;;;5076969;28;19969;-80
2022/12/03 13:39:52;;;;;;;3.75;2.80;;;10.80;63.20;;;;;;5086247;28;20089;-79
2022/12/03 13:42:37;;;;;;;6.35;4.13;;;10.80;63.10;;;;;;5069164;28;20047;-79
2022/12/03 13:45:23;;;;;;;4.85;3.30;;;10.80;63.10;;;;;;5083408;28;20185;-79
2022/12/03 13:48:23;;;;;;;4.60;3.55;;;10.80;63.00;;;;;;5079119;28;20086;-76
2022/12/03 13:51:22;;;;;;;7.70;3.72;;;10.80;62.90;;;;;;5072684;28;20366;-83
2022/12/03 13:54:12;;;;;;;6.15;3.42;;;10.80;62.90;;;;;;5081585;28;20158;-82
2022/12/03 13:56:56;;;;;;;5.60;2.60;;;10.80;62.90;;;;;;5074216;28;20515;-79
2022/12/03 13:59:41;;;;;;;5.65;2.95;;;10.70;62.70;;;;;;5091991;28;20093;-80
2022/12/03 14:02:26;;;;;;;6.50;3.60;;;10.70;62.70;;;;;;5061734;28;20098;-80
2022/12/03 14:05:11;;;;;;;5.63;2.92;;;10.70;62.70;;;;;;5080917;28;20051;-79
2022/12/03 14:08:00;;;;;;;3.30;2.38;;;10.60;62.60;;;;;;5076484;28;20158;-78
2022/12/03 14:10:44;;;;;;;7.78;3.65;;;10.60;62.60;;;;;;5072878;28;20109;-78
2022/12/03 14:13:29;;;;;;;5.47;3.50;;;10.50;62.50;;;;;;5084299;28;20058;-80
2022/12/03 14:16:14;;;;;;;4.53;2.90;;;10.50;62.50;;;;;;5080782;28;20132;-79
2022/12/03 14:18:58;;;;;;;7.05;2.80;;;10.50;62.50;;;;;;5082959;28;20035;-81
2022/12/03 14:21:43;;;;;;;4.45;3.03;;;10.50;62.50;;;;;;5081632;28;20039;-81
2022/12/03 14:24:27;;;;;;;4.30;2.60;;;10.50;62.50;;;;;;5083475;28;20551;-81
2022/12/03 14:27:12;;;;;;;6.53;2.95;;;10.50;62.50;;;;;;5083147;28;20127;-80
2022/12/03 14:29:57;;;;;;;6.43;3.03;;;10.50;62.50;;;;;;5081410;28;20063;-81
2022/12/03 14:32:41;;;;;;;4.28;2.25;;;10.40;62.40;;;;;;5073347;28;20332;-83
2022/12/03 14:35:26;;;;;;;4.05;2.53;;;10.40;62.40;;;;;;5075396;28;20047;-83
2022/12/03 14:38:11;;;;;;;6.90;2.53;;;10.40;62.40;;;;;;5088227;28;20057;-95
2022/12/03 14:40:55;;;;;;;4.88;2.55;;;10.50;62.50;;;;;;5084474;28;20093;-93
2022/12/03 14:43:40;;;;;;;7.97;2.25;;;10.50;62.50;;;;;;5087048;28;20059;-91
2022/12/03 14:46:24;;;;;;;5.57;2.90;;;10.50;62.40;;;;;;5074995;28;20039;-81
2022/12/03 14:49:11;;;;;;;4.32;2.20;;;10.50;62.40;;;;;;5083616;28;20055;-79